sensor_id;sensor_type;location;lat;lon;timestamp;pressure;altitude;pressure_sealevel;temperature;humidity
79285;BME280;68734;50.452;11.636;2023-07-20T00:01:44;95259.53;;;13.86;81.70
79285;BME280;68734;50.452;11.636;2023-07-20T00:04:11;95259.59;;;13.81;81.22
79285;BME280;68734;50.452;11.636;2023-07-20T00:06:37;95252.38;;;13.71;81.55
79285;BME280;68734;50.452;11.636;2023-07-20T00:09:08;95258.34;;;13.68;81.57
79285;BME280;68734;50.452;11.636;2023-07-20T00:11:38;95266.25;;;13.65;81.48
79285;BME280;68734;50.452;11.636;2023-07-20T00:14:06;95263.31;;;13.61;81.92
79285;BME280;68734;50.452;11.636;2023-07-20T00:16:32;95241.47;;;13.47;81.58
79285;BME280;68734;50.452;11.636;2023-07-20T00:18:57;95253.59;;;13.55;81.49
79285;BME280;68734;50.452;11.636;2023-07-20T00:21:23;95251.19;;;13.53;81.22
79285;BME280;68734;50.452;11.636;2023-07-20T00:23:49;95249.78;;;13.56;81.10
79285;BME280;68734;50.452;11.636;2023-07-20T00:26:15;95249.00;;;13.55;81.31
79285;BME280;68734;50.452;11.636;2023-07-20T00:28:40;95239.03;;;13.46;81.41
79285;BME280;68734;50.452;11.636;2023-07-20T00:31:08;95248.22;;;13.50;81.17
79285;BME280;68734;50.452;11.636;2023-07-20T00:33:36;95245.56;;;13.45;81.27
79285;BME280;68734;50.452;11.636;2023-07-20T00:36:02;95243.66;;;13.45;81.41
79285;BME280;68734;50.452;11.636;2023-07-20T00:38:27;95250.44;;;13.43;81.58
79285;BME280;68734;50.452;11.636;2023-07-20T00:40:52;95249.41;;;13.39;81.26
79285;BME280;68734;50.452;11.636;2023-07-20T00:43:18;95245.66;;;13.34;81.14
79285;BME280;68734;50.452;11.636;2023-07-20T00:45:44;95252.72;;;13.35;81.41
79285;BME280;68734;50.452;11.636;2023-07-20T00:48:13;95247.03;;;13.32;81.95
79285;BME280;68734;50.452;11.636;2023-07-20T00:50:42;95252.78;;;13.25;81.64
79285;BME280;68734;50.452;11.636;2023-07-20T00:53:08;95252.25;;;13.23;81.79
79285;BME280;68734;50.452;11.636;2023-07-20T00:55:34;95247.91;;;13.22;81.28
79285;BME280;68734;50.452;11.636;2023-07-20T00:58:00;95249.22;;;13.25;81.52
79285;BME280;68734;50.452;11.636;2023-07-20T01:00:26;95248.44;;;13.24;81.62
79285;BME280;68734;50.452;11.636;2023-07-20T01:02:54;95240.03;;;13.21;81.15
79285;BME280;68734;50.452;11.636;2023-07-20T01:05:21;95243.59;;;13.21;81.66
79285;BME280;68734;50.452;11.636;2023-07-20T01:07:58;95247.38;;;13.20;81.30
79285;BME280;68734;50.452;11.636;2023-07-20T01:12:55;95240.66;;;13.12;81.21
79285;BME280;68734;50.452;11.636;2023-07-20T01:15:21;95235.00;;;13.09;81.18
79285;BME280;68734;50.452;11.636;2023-07-20T01:17:46;95232.34;;;13.04;81.24
79285;BME280;68734;50.452;11.636;2023-07-20T01:20:16;95242.13;;;13.00;80.92
79285;BME280;68734;50.452;11.636;2023-07-20T01:31:34;95230.22;;;12.95;80.64
79285;BME280;68734;50.452;11.636;2023-07-20T01:34:02;95242.41;;;12.98;80.23
79285;BME280;68734;50.452;11.636;2023-07-20T01:36:34;95234.03;;;12.94;80.17
79285;BME280;68734;50.452;11.636;2023-07-20T01:39:03;95230.78;;;12.92;80.13
79285;BME280;68734;50.452;11.636;2023-07-20T01:41:30;95240.50;;;12.98;79.97
79285;BME280;68734;50.452;11.636;2023-07-20T01:44:03;95231.84;;;12.96;80.24
79285;BME280;68734;50.452;11.636;2023-07-20T01:46:28;95239.44;;;12.94;80.35
79285;BME280;68734;50.452;11.636;2023-07-20T01:51:33;95221.66;;;12.83;80.48
79285;BME280;68734;50.452;11.636;2023-07-20T01:53:59;95230.88;;;12.82;80.71
79285;BME280;68734;50.452;11.636;2023-07-20T01:56:25;95230.41;;;12.75;81.11
79285;BME280;68734;50.452;11.636;2023-07-20T01:58:52;95239.59;;;12.74;81.37
79285;BME280;68734;50.452;11.636;2023-07-20T02:01:18;95235.84;;;12.65;81.71
79285;BME280;68734;50.452;11.636;2023-07-20T02:03:43;95245.28;;;12.72;81.93
79285;BME280;68734;50.452;11.636;2023-07-20T02:06:09;95248.59;;;12.69;82.31
79285;BME280;68734;50.452;11.636;2023-07-20T02:08:34;95233.69;;;12.67;81.83
79285;BME280;68734;50.452;11.636;2023-07-20T02:11:00;95216.94;;;12.60;82.04
79285;BME280;68734;50.452;11.636;2023-07-20T02:13:27;95212.59;;;12.58;81.76
79285;BME280;68734;50.452;11.636;2023-07-20T02:15:55;95240.72;;;12.68;81.23
79285;BME280;68734;50.452;11.636;2023-07-20T02:18:23;95229.38;;;12.61;80.95
79285;BME280;68734;50.452;11.636;2023-07-20T02:20:51;95227.25;;;12.57;80.66
79285;BME280;68734;50.452;11.636;2023-07-20T02:23:17;95234.25;;;12.64;81.24
79285;BME280;68734;50.452;11.636;2023-07-20T02:25:50;95240.19;;;12.66;81.42
79285;BME280;68734;50.452;11.636;2023-07-20T02:30:46;95231.00;;;12.62;81.51
79285;BME280;68734;50.452;11.636;2023-07-20T02:33:20;95235.91;;;12.60;81.71
79285;BME280;68734;50.452;11.636;2023-07-20T02:35:47;95238.34;;;12.61;81.19
79285;BME280;68734;50.452;11.636;2023-07-20T02:38:14;95241.31;;;12.60;81.06
79285;BME280;68734;50.452;11.636;2023-07-20T02:40:42;95245.63;;;12.61;81.68
79285;BME280;68734;50.452;11.636;2023-07-20T02:43:07;95234.81;;;12.61;81.43
79285;BME280;68734;50.452;11.636;2023-07-20T02:45:35;95237.81;;;12.59;80.73
79285;BME280;68734;50.452;11.636;2023-07-20T02:48:00;95239.34;;;12.70;80.55
79285;BME280;68734;50.452;11.636;2023-07-20T02:50:26;95238.00;;;12.73;80.44
79285;BME280;68734;50.452;11.636;2023-07-20T02:52:51;95235.81;;;12.75;80.31
79285;BME280;68734;50.452;11.636;2023-07-20T02:55:17;95241.75;;;12.77;80.23
79285;BME280;68734;50.452;11.636;2023-07-20T02:57:42;95243.63;;;12.76;80.11
79285;BME280;68734;50.452;11.636;2023-07-20T03:00:08;95246.13;;;12.73;79.95
79285;BME280;68734;50.452;11.636;2023-07-20T03:02:36;95260.72;;;12.77;79.50
79285;BME280;68734;50.452;11.636;2023-07-20T03:05:01;95263.97;;;12.79;80.13
79285;BME280;68734;50.452;11.636;2023-07-20T03:07:31;95258.53;;;12.79;79.81
79285;BME280;68734;50.452;11.636;2023-07-20T03:09:56;95262.06;;;12.74;79.87
79285;BME280;68734;50.452;11.636;2023-07-20T03:12:22;95262.91;;;12.75;79.46
79285;BME280;68734;50.452;11.636;2023-07-20T03:14:49;95266.94;;;12.77;79.87
79285;BME280;68734;50.452;11.636;2023-07-20T03:17:15;95266.69;;;12.79;80.16
79285;BME280;68734;50.452;11.636;2023-07-20T03:19:41;95267.22;;;12.81;80.10
79285;BME280;68734;50.452;11.636;2023-07-20T03:22:06;95272.03;;;12.84;80.01
79285;BME280;68734;50.452;11.636;2023-07-20T03:24:32;95271.50;;;12.87;79.84
79285;BME280;68734;50.452;11.636;2023-07-20T03:27:00;95277.97;;;12.91;79.51
79285;BME280;68734;50.452;11.636;2023-07-20T03:29:26;95276.34;;;12.90;79.45
79285;BME280;68734;50.452;11.636;2023-07-20T03:31:51;95274.44;;;12.91;79.91
79285;BME280;68734;50.452;11.636;2023-07-20T03:34:16;95263.31;;;12.92;79.81
79285;BME280;68734;50.452;11.636;2023-07-20T03:36:44;95264.94;;;12.93;79.93
79285;BME280;68734;50.452;11.636;2023-07-20T03:39:10;95269.78;;;12.96;79.99
79285;BME280;68734;50.452;11.636;2023-07-20T03:41:35;95271.41;;;12.97;79.82
79285;BME280;68734;50.452;11.636;2023-07-20T03:44:02;95269.25;;;13.00;79.96
79285;BME280;68734;50.452;11.636;2023-07-20T03:46:27;95274.06;;;13.03;79.23
79285;BME280;68734;50.452;11.636;2023-07-20T03:48:55;95278.16;;;13.05;79.53
79285;BME280;68734;50.452;11.636;2023-07-20T03:51:20;95269.16;;;13.10;79.11
79285;BME280;68734;50.452;11.636;2023-07-20T03:53:46;95272.91;;;13.14;79.28
79285;BME280;68734;50.452;11.636;2023-07-20T03:56:11;95274.25;;;13.16;79.05
79285;BME280;68734;50.452;11.636;2023-07-20T03:58:37;95272.06;;;13.18;79.05
79285;BME280;68734;50.452;11.636;2023-07-20T04:01:02;95279.91;;;13.20;79.26
79285;BME280;68734;50.452;11.636;2023-07-20T04:03:27;95276.94;;;13.22;79.37
79285;BME280;68734;50.452;11.636;2023-07-20T04:05:55;95277.72;;;13.22;79.45
79285;BME280;68734;50.452;11.636;2023-07-20T04:08:25;95279.38;;;13.23;79.78
79285;BME280;68734;50.452;11.636;2023-07-20T04:10:51;95282.63;;;13.20;80.85
79285;BME280;68734;50.452;11.636;2023-07-20T04:13:18;95283.16;;;13.22;81.23
79285;BME280;68734;50.452;11.636;2023-07-20T04:15:44;95284.19;;;13.26;81.03
79285;BME280;68734;50.452;11.636;2023-07-20T04:18:12;95284.19;;;13.26;80.61
79285;BME280;68734;50.452;11.636;2023-07-20T04:20:38;95283.41;;;13.26;80.80
79285;BME280;68734;50.452;11.636;2023-07-20T04:23:03;95282.28;;;13.27;80.76
79285;BME280;68734;50.452;11.636;2023-07-20T04:25:29;95288.25;;;13.29;80.81
79285;BME280;68734;50.452;11.636;2023-07-20T04:27:55;95289.56;;;13.36;80.45
79285;BME280;68734;50.452;11.636;2023-07-20T04:30:23;95291.66;;;13.45;80.42
79285;BME280;68734;50.452;11.636;2023-07-20T04:32:49;95288.34;;;13.53;80.48
79285;BME280;68734;50.452;11.636;2023-07-20T04:38:18;95291.41;;;13.75;80.00
79285;BME280;68734;50.452;11.636;2023-07-20T04:40:48;95294.00;;;13.86;79.84
79285;BME280;68734;50.452;11.636;2023-07-20T04:43:14;95298.53;;;13.95;79.72
79285;BME280;68734;50.452;11.636;2023-07-20T04:45:40;95287.84;;;14.04;79.31
79285;BME280;68734;50.452;11.636;2023-07-20T04:48:14;95294.00;;;14.34;78.52
79285;BME280;68734;50.452;11.636;2023-07-20T04:50:43;95283.47;;;14.51;77.50
79285;BME280;68734;50.452;11.636;2023-07-20T04:53:10;95292.66;;;14.55;77.22
79285;BME280;68734;50.452;11.636;2023-07-20T04:55:36;95294.91;;;14.91;76.04
79285;BME280;68734;50.452;11.636;2023-07-20T04:58:05;95296.66;;;14.82;76.08
79285;BME280;68734;50.452;11.636;2023-07-20T05:00:32;95297.69;;;14.86;75.82
79285;BME280;68734;50.452;11.636;2023-07-20T05:02:58;95298.16;;;14.93;75.61
79285;BME280;68734;50.452;11.636;2023-07-20T05:05:23;95306.16;;;15.04;74.90
79285;BME280;68734;50.452;11.636;2023-07-20T05:07:49;95307.91;;;15.13;74.72
79285;BME280;68734;50.452;11.636;2023-07-20T05:10:14;95308.06;;;15.55;73.60
79285;BME280;68734;50.452;11.636;2023-07-20T05:12:40;95304.78;;;15.39;73.59
79285;BME280;68734;50.452;11.636;2023-07-20T05:15:05;95311.44;;;15.66;72.79
79285;BME280;68734;50.452;11.636;2023-07-20T05:17:31;95313.78;;;15.72;72.11
79285;BME280;68734;50.452;11.636;2023-07-20T05:19:56;95317.44;;;15.82;72.10
79285;BME280;68734;50.452;11.636;2023-07-20T05:22:22;95321.63;;;16.21;70.40
79285;BME280;68734;50.452;11.636;2023-07-20T05:24:49;95316.84;;;16.95;68.06
79285;BME280;68734;50.452;11.636;2023-07-20T05:27:15;95322.59;;;17.08;67.39
79285;BME280;68734;50.452;11.636;2023-07-20T05:29:45;95323.47;;;17.40;66.74
79285;BME280;68734;50.452;11.636;2023-07-20T05:32:11;95316.66;;;17.28;66.82
79285;BME280;68734;50.452;11.636;2023-07-20T05:34:36;95315.47;;;16.84;68.97
79285;BME280;68734;50.452;11.636;2023-07-20T05:37:01;95318.28;;;16.93;68.97
79285;BME280;68734;50.452;11.636;2023-07-20T05:39:28;95313.34;;;16.81;69.83
79285;BME280;68734;50.452;11.636;2023-07-20T05:41:53;95318.50;;;16.69;69.14
79285;BME280;68734;50.452;11.636;2023-07-20T05:44:18;95318.28;;;16.51;70.28
79285;BME280;68734;50.452;11.636;2023-07-20T05:46:44;95320.00;;;16.33;70.58
79285;BME280;68734;50.452;11.636;2023-07-20T05:49:12;95315.69;;;16.19;71.30
79285;BME280;68734;50.452;11.636;2023-07-20T05:51:37;95315.66;;;16.05;71.50
79285;BME280;68734;50.452;11.636;2023-07-20T05:54:03;95319.19;;;16.05;71.84
79285;BME280;68734;50.452;11.636;2023-07-20T05:56:28;95323.72;;;15.96;71.77
79285;BME280;68734;50.452;11.636;2023-07-20T05:58:53;95332.59;;;15.88;71.92
79285;BME280;68734;50.452;11.636;2023-07-20T06:01:21;95328.78;;;16.17;71.44
79285;BME280;68734;50.452;11.636;2023-07-20T06:03:49;95336.66;;;16.87;68.71
79285;BME280;68734;50.452;11.636;2023-07-20T06:06:15;95322.00;;;17.33;66.92
79285;BME280;68734;50.452;11.636;2023-07-20T06:08:40;95317.72;;;19.15;60.62
79285;BME280;68734;50.452;11.636;2023-07-20T06:11:06;95317.19;;;20.09;57.59
79285;BME280;68734;50.452;11.636;2023-07-20T06:13:31;95322.19;;;21.35;52.85
79285;BME280;68734;50.452;11.636;2023-07-20T06:15:57;95316.25;;;21.54;51.44
79285;BME280;68734;50.452;11.636;2023-07-20T06:18:23;95322.03;;;22.40;49.51
79285;BME280;68734;50.452;11.636;2023-07-20T06:20:52;95318.50;;;22.88;47.78
79285;BME280;68734;50.452;11.636;2023-07-20T06:23:20;95318.28;;;22.94;47.33
79285;BME280;68734;50.452;11.636;2023-07-20T06:25:48;95316.00;;;23.48;46.61
79285;BME280;68734;50.452;11.636;2023-07-20T06:28:14;95321.13;;;24.19;45.12
79285;BME280;68734;50.452;11.636;2023-07-20T06:30:43;95320.44;;;24.22;44.30
79285;BME280;68734;50.452;11.636;2023-07-20T06:33:08;95313.69;;;22.85;47.65
79285;BME280;68734;50.452;11.636;2023-07-20T06:35:34;95316.69;;;22.22;48.80
79285;BME280;68734;50.452;11.636;2023-07-20T06:38:03;95312.44;;;22.13;49.77
79285;BME280;68734;50.452;11.636;2023-07-20T06:40:31;95310.69;;;23.27;46.78
79285;BME280;68734;50.452;11.636;2023-07-20T06:42:56;95308.31;;;24.11;44.44
79285;BME280;68734;50.452;11.636;2023-07-20T06:45:22;95314.13;;;25.01;42.79
79285;BME280;68734;50.452;11.636;2023-07-20T06:47:48;95311.72;;;25.51;40.12
79285;BME280;68734;50.452;11.636;2023-07-20T06:50:15;95310.03;;;24.95;39.83
79285;BME280;68734;50.452;11.636;2023-07-20T06:52:41;95310.22;;;25.37;40.27
79285;BME280;68734;50.452;11.636;2023-07-20T06:55:09;95311.94;;;25.81;39.69
79285;BME280;68734;50.452;11.636;2023-07-20T06:57:34;95315.63;;;24.19;42.65
79285;BME280;68734;50.452;11.636;2023-07-20T06:59:59;95308.88;;;24.32;43.45
79285;BME280;68734;50.452;11.636;2023-07-20T07:02:25;95305.94;;;23.81;43.96
79285;BME280;68734;50.452;11.636;2023-07-20T07:04:50;95302.88;;;23.17;44.09
79285;BME280;68734;50.452;11.636;2023-07-20T07:07:18;95308.00;;;21.54;47.46
79285;BME280;68734;50.452;11.636;2023-07-20T07:09:43;95311.19;;;21.35;48.35
79285;BME280;68734;50.452;11.636;2023-07-20T07:12:11;95309.72;;;20.95;49.47
79285;BME280;68734;50.452;11.636;2023-07-20T07:14:37;95315.72;;;20.88;50.40
79285;BME280;68734;50.452;11.636;2023-07-20T07:17:02;95320.50;;;20.70;50.40
79285;BME280;68734;50.452;11.636;2023-07-20T07:19:28;95308.16;;;20.47;50.64
79285;BME280;68734;50.452;11.636;2023-07-20T07:21:53;95307.00;;;20.09;51.38
79285;BME280;68734;50.452;11.636;2023-07-20T07:24:19;95313.34;;;19.84;52.52
79285;BME280;68734;50.452;11.636;2023-07-20T07:26:46;95303.06;;;19.72;52.69
79285;BME280;68734;50.452;11.636;2023-07-20T07:29:12;95300.97;;;19.78;52.38
79285;BME280;68734;50.452;11.636;2023-07-20T07:31:37;95299.19;;;19.47;52.36
79285;BME280;68734;50.452;11.636;2023-07-20T07:34:04;95299.66;;;19.14;53.23
79285;BME280;68734;50.452;11.636;2023-07-20T07:36:30;95299.34;;;18.89;54.61
79285;BME280;68734;50.452;11.636;2023-07-20T07:38:56;95313.81;;;18.81;54.53
79285;BME280;68734;50.452;11.636;2023-07-20T07:41:21;95314.16;;;18.88;53.96
79285;BME280;68734;50.452;11.636;2023-07-20T07:43:47;95315.13;;;19.01;54.08
79285;BME280;68734;50.452;11.636;2023-07-20T07:46:13;95306.09;;;19.18;52.66
79285;BME280;68734;50.452;11.636;2023-07-20T07:48:39;95308.69;;;18.88;51.78
79285;BME280;68734;50.452;11.636;2023-07-20T07:51:07;95318.38;;;18.54;53.85
79285;BME280;68734;50.452;11.636;2023-07-20T07:53:32;95312.47;;;18.79;52.42
79285;BME280;68734;50.452;11.636;2023-07-20T07:55:58;95317.38;;;19.08;52.17
79285;BME280;68734;50.452;11.636;2023-07-20T07:58:23;95308.38;;;19.16;51.71
79285;BME280;68734;50.452;11.636;2023-07-20T08:00:49;95311.28;;;19.28;51.65
79285;BME280;68734;50.452;11.636;2023-07-20T08:03:14;95315.31;;;19.40;52.02
79285;BME280;68734;50.452;11.636;2023-07-20T08:05:40;95317.56;;;19.38;49.78
79285;BME280;68734;50.452;11.636;2023-07-20T08:08:05;95315.78;;;19.42;51.59
79285;BME280;68734;50.452;11.636;2023-07-20T08:10:34;95319.00;;;19.61;49.58
79285;BME280;68734;50.452;11.636;2023-07-20T08:13:00;95310.63;;;19.58;48.16
79285;BME280;68734;50.452;11.636;2023-07-20T08:15:28;95310.31;;;19.59;48.54
79285;BME280;68734;50.452;11.636;2023-07-20T08:17:53;95323.50;;;19.92;47.80
79285;BME280;68734;50.452;11.636;2023-07-20T08:20:19;95312.56;;;19.40;48.48
79285;BME280;68734;50.452;11.636;2023-07-20T08:22:44;95313.53;;;19.44;50.13
79285;BME280;68734;50.452;11.636;2023-07-20T08:25:12;95305.81;;;19.28;51.01
79285;BME280;68734;50.452;11.636;2023-07-20T08:27:37;95310.31;;;19.16;50.31
79285;BME280;68734;50.452;11.636;2023-07-20T08:30:03;95314.78;;;18.94;50.71
79285;BME280;68734;50.452;11.636;2023-07-20T08:32:33;95321.22;;;18.89;51.87
79285;BME280;68734;50.452;11.636;2023-07-20T08:34:58;95316.88;;;18.88;51.76
79285;BME280;68734;50.452;11.636;2023-07-20T08:37:23;95313.19;;;19.02;51.30
79285;BME280;68734;50.452;11.636;2023-07-20T08:39:49;95319.97;;;19.13;50.48
79285;BME280;68734;50.452;11.636;2023-07-20T08:42:15;95319.47;;;19.20;50.72
79285;BME280;68734;50.452;11.636;2023-07-20T08:44:45;95311.09;;;19.16;49.72
79285;BME280;68734;50.452;11.636;2023-07-20T08:47:12;95316.75;;;19.11;48.69
79285;BME280;68734;50.452;11.636;2023-07-20T08:49:39;95317.25;;;19.30;48.63
79285;BME280;68734;50.452;11.636;2023-07-20T08:52:07;95313.19;;;19.54;48.42
79285;BME280;68734;50.452;11.636;2023-07-20T08:54:35;95318.13;;;20.04;47.14
79285;BME280;68734;50.452;11.636;2023-07-20T08:57:04;95312.16;;;20.11;47.73
79285;BME280;68734;50.452;11.636;2023-07-20T08:59:31;95313.25;;;20.27;46.14
79285;BME280;68734;50.452;11.636;2023-07-20T09:01:58;95315.53;;;20.17;46.37
79285;BME280;68734;50.452;11.636;2023-07-20T09:04:26;95326.75;;;19.59;47.64
79285;BME280;68734;50.452;11.636;2023-07-20T09:06:51;95324.97;;;19.37;49.70
79285;BME280;68734;50.452;11.636;2023-07-20T09:09:19;95331.88;;;19.17;51.21
79285;BME280;68734;50.452;11.636;2023-07-20T09:11:49;95328.63;;;18.98;51.02
79285;BME280;68734;50.452;11.636;2023-07-20T09:14:16;95334.91;;;18.98;50.99
79285;BME280;68734;50.452;11.636;2023-07-20T09:16:54;95328.81;;;19.10;50.98
79285;BME280;68734;50.452;11.636;2023-07-20T09:19:20;95339.28;;;19.25;51.18
79285;BME280;68734;50.452;11.636;2023-07-20T09:21:50;95336.41;;;19.30;51.58
79285;BME280;68734;50.452;11.636;2023-07-20T09:24:18;95335.75;;;19.42;51.67
79285;BME280;68734;50.452;11.636;2023-07-20T09:26:45;95341.41;;;19.63;51.94
79285;BME280;68734;50.452;11.636;2023-07-20T09:29:14;95320.25;;;20.07;51.36
79285;BME280;68734;50.452;11.636;2023-07-20T09:31:39;95327.94;;;20.23;49.73
79285;BME280;68734;50.452;11.636;2023-07-20T09:34:06;95320.03;;;20.12;49.92
79285;BME280;68734;50.452;11.636;2023-07-20T09:36:40;95333.00;;;19.60;48.46
79285;BME280;68734;50.452;11.636;2023-07-20T09:39:06;95326.88;;;19.28;50.41
79285;BME280;68734;50.452;11.636;2023-07-20T09:41:41;95332.06;;;19.29;51.14
79285;BME280;68734;50.452;11.636;2023-07-20T09:44:10;95340.13;;;19.43;50.96
79285;BME280;68734;50.452;11.636;2023-07-20T09:46:48;95329.97;;;19.44;48.62
79285;BME280;68734;50.452;11.636;2023-07-20T09:49:14;95323.81;;;19.64;48.83
79285;BME280;68734;50.452;11.636;2023-07-20T09:51:41;95332.38;;;19.80;48.44
79285;BME280;68734;50.452;11.636;2023-07-20T09:54:07;95329.94;;;19.96;47.35
79285;BME280;68734;50.452;11.636;2023-07-20T09:56:38;95325.88;;;20.11;46.73
79285;BME280;68734;50.452;11.636;2023-07-20T09:59:05;95338.78;;;20.02;46.81
79285;BME280;68734;50.452;11.636;2023-07-20T10:01:32;95332.88;;;19.73;47.33
79285;BME280;68734;50.452;11.636;2023-07-20T10:04:08;95330.25;;;19.16;48.85
79285;BME280;68734;50.452;11.636;2023-07-20T10:06:36;95348.94;;;18.97;49.25
79285;BME280;68734;50.452;11.636;2023-07-20T10:09:08;95345.34;;;18.87;52.05
79285;BME280;68734;50.452;11.636;2023-07-20T10:11:36;95350.66;;;18.84;52.81
79285;BME280;68734;50.452;11.636;2023-07-20T10:14:06;95362.91;;;17.70;57.05
79285;BME280;68734;50.452;11.636;2023-07-20T10:16:39;95381.91;;;16.61;65.25
79285;BME280;68734;50.452;11.636;2023-07-20T10:21:47;95376.50;;;16.00;72.72
79285;BME280;68734;50.452;11.636;2023-07-20T10:24:14;95378.59;;;16.03;72.78
79285;BME280;68734;50.452;11.636;2023-07-20T10:26:40;95371.19;;;16.23;73.63
79285;BME280;68734;50.452;11.636;2023-07-20T10:29:06;95364.94;;;16.36;71.44
79285;BME280;68734;50.452;11.636;2023-07-20T10:31:32;95367.19;;;16.48;72.57
79285;BME280;68734;50.452;11.636;2023-07-20T10:34:01;95359.50;;;16.64;73.32
79285;BME280;68734;50.452;11.636;2023-07-20T10:36:31;95359.91;;;16.85;74.78
79285;BME280;68734;50.452;11.636;2023-07-20T10:38:58;95360.00;;;16.93;73.55
79285;BME280;68734;50.452;11.636;2023-07-20T10:41:35;95353.22;;;17.05;74.73
79285;BME280;68734;50.452;11.636;2023-07-20T10:44:03;95343.22;;;17.37;72.69
79285;BME280;68734;50.452;11.636;2023-07-20T10:49:04;95341.13;;;18.01;65.63
79285;BME280;68734;50.452;11.636;2023-07-20T10:51:31;95338.69;;;18.31;68.58
79285;BME280;68734;50.452;11.636;2023-07-20T10:54:03;95335.75;;;18.59;67.06
79285;BME280;68734;50.452;11.636;2023-07-20T10:56:28;95342.31;;;18.89;66.83
79285;BME280;68734;50.452;11.636;2023-07-20T10:59:01;95334.81;;;18.72;60.83
79285;BME280;68734;50.452;11.636;2023-07-20T11:01:30;95324.13;;;18.84;60.34
79285;BME280;68734;50.452;11.636;2023-07-20T11:03:58;95315.16;;;19.27;59.87
79285;BME280;68734;50.452;11.636;2023-07-20T11:09:09;95317.22;;;19.74;54.38
79285;BME280;68734;50.452;11.636;2023-07-20T11:11:50;95324.50;;;19.79;53.17
79285;BME280;68734;50.452;11.636;2023-07-20T11:14:25;95326.66;;;20.11;52.76
79285;BME280;68734;50.452;11.636;2023-07-20T11:16:52;95313.09;;;20.24;48.87
79285;BME280;68734;50.452;11.636;2023-07-20T11:19:24;95310.66;;;20.31;48.70
79285;BME280;68734;50.452;11.636;2023-07-20T11:21:56;95311.03;;;20.50;48.10
79285;BME280;68734;50.452;11.636;2023-07-20T11:24:23;95305.69;;;20.54;47.20
79285;BME280;68734;50.452;11.636;2023-07-20T11:26:53;95319.59;;;20.87;46.39
79285;BME280;68734;50.452;11.636;2023-07-20T11:29:22;95308.88;;;20.95;44.72
79285;BME280;68734;50.452;11.636;2023-07-20T11:31:50;95305.03;;;21.38;46.44
79285;BME280;68734;50.452;11.636;2023-07-20T11:34:17;95303.31;;;21.54;44.06
79285;BME280;68734;50.452;11.636;2023-07-20T11:36:47;95307.31;;;21.36;43.56
79285;BME280;68734;50.452;11.636;2023-07-20T11:39:13;95303.03;;;21.05;44.57
79285;BME280;68734;50.452;11.636;2023-07-20T11:41:44;95312.25;;;20.70;44.48
79285;BME280;68734;50.452;11.636;2023-07-20T11:44:13;95307.50;;;20.59;45.45
79285;BME280;68734;50.452;11.636;2023-07-20T11:46:44;95317.41;;;20.72;45.06
79285;BME280;68734;50.452;11.636;2023-07-20T11:49:12;95311.78;;;20.68;43.52
79285;BME280;68734;50.452;11.636;2023-07-20T11:51:39;95310.56;;;20.87;43.88
79285;BME280;68734;50.452;11.636;2023-07-20T11:54:07;95311.28;;;21.05;43.30
79285;BME280;68734;50.452;11.636;2023-07-20T11:56:32;95296.72;;;21.04;41.42
79285;BME280;68734;50.452;11.636;2023-07-20T11:58:58;95310.38;;;20.92;42.30
79285;BME280;68734;50.452;11.636;2023-07-20T12:01:26;95303.91;;;21.18;43.06
79285;BME280;68734;50.452;11.636;2023-07-20T12:03:56;95300.22;;;21.35;42.91
79285;BME280;68734;50.452;11.636;2023-07-20T12:06:25;95303.06;;;21.47;42.22
79285;BME280;68734;50.452;11.636;2023-07-20T12:08:55;95308.25;;;21.40;41.68
79285;BME280;68734;50.452;11.636;2023-07-20T12:11:42;95302.84;;;21.52;40.48
79285;BME280;68734;50.452;11.636;2023-07-20T12:14:08;95300.63;;;21.66;40.87
79285;BME280;68734;50.452;11.636;2023-07-20T12:16:37;95305.44;;;21.69;41.70
79285;BME280;68734;50.452;11.636;2023-07-20T12:19:07;95310.38;;;21.76;40.50
79285;BME280;68734;50.452;11.636;2023-07-20T12:21:38;95314.56;;;21.61;40.84
79285;BME280;68734;50.452;11.636;2023-07-20T12:24:10;95319.38;;;21.85;40.03
79285;BME280;68734;50.452;11.636;2023-07-20T12:26:35;95323.56;;;21.83;39.38
79285;BME280;68734;50.452;11.636;2023-07-20T12:29:02;95331.13;;;21.52;40.59
79285;BME280;68734;50.452;11.636;2023-07-20T12:31:30;95333.91;;;21.23;39.69
79285;BME280;68734;50.452;11.636;2023-07-20T12:33:57;95337.31;;;21.41;40.56
79285;BME280;68734;50.452;11.636;2023-07-20T12:36:24;95323.94;;;21.39;40.03
79285;BME280;68734;50.452;11.636;2023-07-20T12:38:52;95350.06;;;20.65;44.12
79285;BME280;68734;50.452;11.636;2023-07-20T12:41:17;95347.19;;;19.70;50.67
79285;BME280;68734;50.452;11.636;2023-07-20T12:43:45;95344.91;;;19.20;52.83
79285;BME280;68734;50.452;11.636;2023-07-20T12:46:12;95346.72;;;18.67;54.59
79285;BME280;68734;50.452;11.636;2023-07-20T12:48:38;95358.03;;;18.12;56.42
79285;BME280;68734;50.452;11.636;2023-07-20T12:51:06;95366.97;;;17.95;57.78
79285;BME280;68734;50.452;11.636;2023-07-20T12:53:32;95361.47;;;18.18;57.53
79285;BME280;68734;50.452;11.636;2023-07-20T12:55:58;95350.19;;;18.10;56.62
79285;BME280;68734;50.452;11.636;2023-07-20T12:58:24;95365.91;;;17.82;57.33
79285;BME280;68734;50.452;11.636;2023-07-20T13:00:49;95360.00;;;17.89;56.35
79285;BME280;68734;50.452;11.636;2023-07-20T13:03:15;95374.06;;;17.96;55.66
79285;BME280;68734;50.452;11.636;2023-07-20T13:05:41;95381.91;;;17.16;56.73
79285;BME280;68734;50.452;11.636;2023-07-20T13:08:07;95377.66;;;17.10;56.78
79285;BME280;68734;50.452;11.636;2023-07-20T13:10:32;95381.78;;;17.07;56.34
79285;BME280;68734;50.452;11.636;2023-07-20T13:12:59;95377.84;;;17.00;56.52
79285;BME280;68734;50.452;11.636;2023-07-20T13:15:29;95380.09;;;16.98;57.21
79285;BME280;68734;50.452;11.636;2023-07-20T13:17:57;95375.03;;;17.05;56.84